Terminal Aerodrome Forecast
Issued by NWS Blacksburg, VA

Home | Current Version | Previous Version | Text Only | Print | Product List | Glossary On
Versions: 1 2 3 4 5 6 7 8 9 10 11 12 13 14 15 16
000
FTUS41 KRNK 301720
TAFROA
TAF
KROA 301720Z 3018/3118 32006KT P6SM SCT040
     FM302300 01003KT P6SM SKC
     FM310700 05003KT P6SM OVC035=

USA.gov is the U.S. government's official web portal to all federal, state and local government web resources and services.